Kristin D — C6XA6 — position and weather

sailwx.info

Track history (hours):
 
Tides and Currents Weather Stations Pressure Air Temp Water Temp Dewpoint Dewpoint Depression Visibility Wind Speed Wind Dir Waves Ship Positions

Kristin D

Last reported at 2017-Dec-11 17:00 UTC. Time now 2017-Dec-11 23:00 UTC.
Position N 59°03' E 009°42'.

Length 90 m; draft 4.2 m.

Type: Cargo ship. MMSI: 311003700.

Date/timePositionNaut miles runAvg speedWind from/ knotsBaromVisibWave heightAir tempDewpointWater temp
2017-Dec-11 17:00N 59°03' E 009°42'5 9.9
2017-Dec-11 16:31N 58°59' E 009°47'5 9.7
2017-Dec-11 16:00N 58°54' E 009°45'510.2
2017-Dec-11 15:30N 58°50' E 009°38'5 9.4
2017-Dec-11 15:00N 58°47' E 009°33'4 8.8
2017-Dec-11 14:30N 58°44' E 009°27'4 8.7
2017-Dec-11 14:00N 58°40' E 009°21'5 9.2
2017-Dec-11 13:30N 58°37' E 009°15'5 9.2
2017-Dec-11 13:00N 58°33' E 009°09'4 9.0
2017-Dec-11 12:31N 58°30' E 009°04'5 8.8
2017-Dec-11 12:00N 58°26' E 008°59'4 8.6
2017-Dec-11 11:30N 58°23' E 008°53'4 8.9
2017-Dec-11 11:00N 58°20' E 008°47'5 9.0
2017-Dec-11 10:30N 58°17' E 008°41'5 9.1
2017-Dec-11 10:00N 58°14' E 008°34'5 9.3
2017-Dec-11 09:30N 58°11' E 008°28'5 9.5
2017-Dec-11 09:01N 58°07' E 008°22'5 9.1
2017-Dec-11 08:31N 58°04' E 008°16'4 8.9
2017-Dec-11 08:01N 58°02' E 008°09'5 9.7
2017-Dec-11 07:30N 58°00' E 008°00'5 9.9
2017-Dec-11 07:00N 57°59' E 007°51'5 9.6
2017-Dec-11 06:30N 57°57' E 007°43'5 9.3
2017-Dec-11 06:00N 57°56' E 007°34'5 9.8
2017-Dec-11 05:30N 57°56' E 007°25'5 9.9
2017-Dec-11 05:00N 57°56' E 007°16'5 9.4
2017-Dec-11 04:30N 57°56' E 007°07'5 9.5
2017-Dec-11 04:00N 57°57' E 006°58'510.1
2017-Dec-11 03:30N 57°58' E 006°49'510.2
2017-Dec-11 03:01N 57°60' E 006°40'510.0
2017-Dec-11 02:31N 58°02' E 006°31'510.8
2017-Dec-11 02:01N 58°05' E 006°24'510.5
2017-Dec-11 01:30N 58°09' E 006°17'510.4
2017-Dec-11 01:00N 58°13' E 006°10'510.2
2017-Dec-11 00:31N 58°16' E 006°03'510.6
2017-Dec-11 00:00N 58°20' E 005°55'510.4
2017-Dec-10 23:30N 58°24' E 005°49'510.8
2017-Dec-10 23:01N 58°28' E 005°42'611.4
2017-Dec-10 22:30N 58°32' E 005°34'510.6
2017-Dec-10 22:00N 58°36' E 005°29'510.5
2017-Dec-10 21:31N 58°41' E 005°23'510.6
2017-Dec-10 21:00N 58°45' E 005°18'510.8
2017-Dec-10 20:31N 58°50' E 005°12'510.5
2017-Dec-10 20:00N 58°54' E 005°07'510.3
2017-Dec-10 19:31N 58°58' E 005°01'510.3
2017-Dec-10 19:01N 59°03' E 004°56'32 9.2
2017-Dec-10 15:32N 59°34' E 004°41'0 9.0
2017-Dec-10 15:30N 59°34' E 004°41'4 8.6
2017-Dec-10 15:00N 59°39' E 004°41'4 8.4
2017-Dec-10 14:30N 59°43' E 004°39'4 8.4
2017-Dec-10 14:00N 59°47' E 004°40'4 8.6
2017-Dec-10 13:30N 59°51' E 004°40'4 8.4
2017-Dec-10 13:00N 59°55' E 004°40'4 8.2
2017-Dec-10 12:30N 59°59' E 004°39'4 8.5
2017-Dec-10 12:00N 60°04' E 004°39'4 8.1
2017-Dec-10 11:30N 60°08' E 004°38'4 8.2
2017-Dec-10 11:00N 60°12' E 004°38'4 8.5
2017-Dec-10 10:30N 60°16' E 004°37'4 8.5
2017-Dec-10 10:00N 60°20' E 004°36'4 8.3
2017-Dec-10 09:31N 60°24' E 004°35'4 7.9
2017-Dec-10 09:00N 60°28' E 004°34'4 7.6
2017-Dec-10 08:30N 60°32' E 004°33'4 7.8
2017-Dec-10 08:00N 60°36' E 004°32'4 7.9
2017-Dec-10 07:30N 60°40' E 004°30'4 8.0
2017-Dec-10 07:01N 60°44' E 004°29'4 7.6
2017-Dec-10 06:30N 60°47' E 004°27'3 7.0
2017-Dec-10 06:01N 60°51' E 004°26'4 7.2
2017-Dec-10 05:30N 60°54' E 004°25'4 7.4
2017-Dec-10 05:00N 60°58' E 004°24'4 7.9
2017-Dec-10 04:30N 61°02' E 004°24'4 7.9
2017-Dec-10 04:00N 61°06' E 004°24'4 8.3
2017-Dec-10 03:30N 61°10' E 004°24'4 8.5
2017-Dec-10 03:00N 61°14' E 004°25'4 8.8
2017-Dec-10 02:30N 61°19' E 004°25'4 8.5
2017-Dec-10 02:00N 61°23' E 004°26'4 8.5
2017-Dec-10 01:30N 61°27' E 004°26'4 8.3
2017-Dec-10 01:00N 61°32' E 004°26'4 8.2
2017-Dec-10 00:30N 61°36' E 004°27'4 8.2
2017-Dec-10 00:00N 61°40' E 004°28'4 8.2
2017-Dec-09 23:30N 61°44' E 004°29'4 8.0
2017-Dec-09 23:00N 61°48' E 004°31'4 8.2
2017-Dec-09 22:30N 61°51' E 004°34'4 8.5
2017-Dec-09 22:00N 61°56' E 004°37'4 8.5
2017-Dec-09 21:31N 61°59' E 004°40'4 8.3
2017-Dec-09 21:00N 62°03' E 004°43'4 8.0
2017-Dec-09 20:30N 62°07' E 004°46'4 8.2
2017-Dec-09 20:00N 62°11' E 004°48'4 8.6
2017-Dec-09 19:30N 62°15' E 004°50'4 7.7
2017-Dec-09 19:00N 62°19' E 004°54'3 6.1
2017-Dec-09 18:30N 62°21' E 004°59'3 5.8
2017-Dec-09 18:01N 62°22' E 005°04'3 5.9
2017-Dec-09 17:30N 62°24' E 005°09'3 6.0
2017-Dec-09 17:01N 62°26' E 005°13'3 5.3
2017-Dec-09 16:30N 62°28' E 005°18'3 5.8
2017-Dec-09 16:00N 62°29' E 005°24'3 6.0
2017-Dec-09 15:30N 62°30' E 005°30'2 4.9
2017-Dec-09 15:00N 62°30' E 005°35'3 6.1
2017-Dec-09 14:30N 62°30' E 005°42'3 4.9
2017-Dec-09 13:59N 62°29' E 005°47'2 5.1
2017-Dec-09 13:31N 62°28' E 005°51'3 5.9
2017-Dec-09 13:00N 62°27' E 005°58'4 7.7
2017-Dec-09 12:30N 62°29' E 006°05'2 4.2
2017-Dec-09 12:00N 62°29' E 006°10'0 0.0
2017-Dec-09 11:30N 62°29' E 006°10'0 0.0
2017-Dec-09 11:00N 62°29' E 006°10'0 0.0
2017-Dec-09 10:30N 62°29' E 006°10'0 0.1
2017-Dec-09 09:59N 62°29' E 006°10'0 0.0
2017-Dec-09 09:29N 62°29' E 006°10'0 0.0
2017-Dec-09 08:59N 62°29' E 006°10'0 0.0
2017-Dec-09 08:29N 62°29' E 006°10'0 0.0
2017-Dec-09 07:59N 62°29' E 006°10'0 0.1
2017-Dec-09 07:29N 62°29' E 006°10'0 0.0
2017-Dec-09 06:59N 62°29' E 006°10'0 0.1
2017-Dec-09 06:29N 62°29' E 006°10'0 0.1
2017-Dec-09 05:59N 62°29' E 006°10'0 0.0
2017-Dec-09 05:29N 62°29' E 006°10'0 0.0
2017-Dec-09 04:59N 62°29' E 006°10'0 0.1
2017-Dec-09 04:29N 62°29' E 006°10'0 0.0
2017-Dec-09 03:59N 62°29' E 006°10'0 0.0
2017-Dec-09 03:29N 62°29' E 006°10'0 0.0
2017-Dec-09 02:59N 62°29' E 006°10'0 0.0
2017-Dec-09 02:29N 62°29' E 006°10'0 0.1
2017-Dec-09 01:59N 62°29' E 006°10'0 0.1
2017-Dec-09 01:29N 62°29' E 006°10'0 0.0
2017-Dec-09 00:59N 62°29' E 006°10'0 0.0
2017-Dec-09 00:29N 62°29' E 006°10'0 0.0
2017-Dec-08 23:59N 62°29' E 006°10'0 0.0
2017-Dec-08 23:29N 62°29' E 006°10'0 0.0
2017-Dec-08 22:59N 62°29' E 006°10'0 0.1
2017-Dec-08 22:29N 62°29' E 006°10'0 0.1
2017-Dec-08 21:59N 62°29' E 006°10'0 0.1
2017-Dec-08 21:29N 62°29' E 006°10'0 0.0
2017-Dec-08 20:59N 62°29' E 006°10'0 0.0
2017-Dec-08 20:29N 62°29' E 006°10'0 0.0
2017-Dec-08 19:59N 62°29' E 006°10'0 0.1
2017-Dec-08 19:29N 62°29' E 006°10'0 0.1
2017-Dec-08 18:59N 62°29' E 006°10'0 0.0
2017-Dec-08 18:29N 62°29' E 006°10'0 0.0
2017-Dec-08 17:59N 62°29' E 006°10'0 0.0
2017-Dec-08 17:29N 62°29' E 006°10'0 0.0
2017-Dec-08 16:59N 62°29' E 006°10'0 0.0
2017-Dec-08 16:29N 62°29' E 006°10'0 0.0
2017-Dec-08 15:59N 62°29' E 006°10'0 0.1
2017-Dec-08 15:29N 62°29' E 006°10'0 0.1
2017-Dec-08 14:59N 62°29' E 006°10'0 0.0
2017-Dec-08 14:29N 62°29' E 006°10'0 0.0
2017-Dec-08 13:59N 62°29' E 006°10'0 0.1
2017-Dec-08 13:29N 62°29' E 006°10'0 0.0
2017-Dec-08 12:59N 62°29' E 006°10'0 0.1
2017-Dec-08 12:29N 62°29' E 006°10'0 0.0
2017-Dec-08 11:59N 62°29' E 006°10'0 0.0
2017-Dec-08 11:29N 62°29' E 006°10'0 0.0
2017-Dec-08 10:59N 62°29' E 006°10'0 0.1
2017-Dec-08 10:29N 62°29' E 006°10'0 0.1
2017-Dec-08 09:59N 62°29' E 006°10'0 0.0
2017-Dec-08 09:29N 62°29' E 006°10'0 0.1
2017-Dec-08 08:59N 62°29' E 006°10'0 0.1
2017-Dec-08 08:29N 62°29' E 006°10'0 0.0
2017-Dec-08 07:59N 62°29' E 006°10'0 0.0
2017-Dec-08 07:29N 62°29' E 006°10'0 0.0
2017-Dec-08 06:59N 62°29' E 006°10'0 0.0
2017-Dec-08 06:29N 62°29' E 006°10'0 0.0
2017-Dec-08 05:59N 62°29' E 006°10'0 0.0
2017-Dec-08 05:29N 62°29' E 006°10'0 0.0
2017-Dec-08 04:59N 62°29' E 006°10'0 0.1
2017-Dec-08 04:29N 62°29' E 006°10'0 0.1
2017-Dec-08 03:59N 62°29' E 006°10'0 0.1
2017-Dec-08 03:29N 62°29' E 006°10'0 0.2
2017-Dec-08 02:59N 62°29' E 006°10'0 0.0
2017-Dec-08 02:29N 62°29' E 006°10'0 0.1
2017-Dec-08 01:59N 62°29' E 006°10'0 0.0
2017-Dec-08 01:29N 62°29' E 006°10'0 0.0
2017-Dec-08 00:59N 62°29' E 006°10'0 0.0
2017-Dec-08 00:29N 62°29' E 006°10'0 0.0
2017-Dec-07 23:59N 62°29' E 006°10'0 0.0
2017-Dec-07 23:29N 62°29' E 006°10'0 0.0
2017-Dec-07 22:59N 62°29' E 006°10'0 0.0
2017-Dec-07 22:29N 62°29' E 006°10'0 0.1
2017-Dec-07 21:59N 62°29' E 006°10'0 0.0
2017-Dec-07 21:29N 62°29' E 006°10'0 0.0
2017-Dec-07 20:58N 62°29' E 006°10'0 0.2
2017-Dec-07 20:28N 62°29' E 006°09'0 0.0
2017-Dec-07 19:58N 62°29' E 006°09'0 0.0
2017-Dec-07 19:28N 62°29' E 006°09'0 0.1
2017-Dec-07 18:58N 62°29' E 006°09'0 0.9
2017-Dec-07 18:30N 62°29' E 006°09'5 9.5
2017-Dec-07 18:00N 62°27' E 005°59'1 2.0
2017-Dec-07 17:30N 62°27' E 005°57'2 3.8
2017-Dec-07 16:59N 62°28' E 005°53'3 7.0
2017-Dec-07 16:30N 62°29' E 005°46'4 9.1
2017-Dec-07 16:00N 62°30' E 005°36'3 7.0
2017-Dec-07 15:30N 62°33' E 005°39'1 2.9
2017-Dec-07 15:00N 62°34' E 005°41'3 6.6
2017-Dec-07 14:30N 62°32' E 005°35'3 6.7
2017-Dec-07 14:00N 62°35' E 005°40'4 7.5
2017-Dec-07 13:30N 62°38' E 005°46'4 7.3
2017-Dec-07 13:00N 62°40' E 005°51'4 7.6
2017-Dec-07 12:30N 62°43' E 005°57'4 7.3
2017-Dec-07 12:00N 62°46' E 006°02'4 7.9
2017-Dec-07 11:30N 62°49' E 006°08'4 8.4
2017-Dec-07 11:00N 62°52' E 006°14'5 9.2
2017-Dec-07 10:29N 62°55' E 006°21'5 9.6
2017-Dec-07 10:00N 62°59' E 006°28'5 9.7
2017-Dec-07 09:30N 63°03' E 006°34'5 9.8
2017-Dec-07 09:00N 63°07' E 006°39'5 9.5
2017-Dec-07 08:30N 63°11' E 006°45'5 9.4
2017-Dec-07 08:00N 63°16' E 006°49'  
2017-Dec-04 03:25N 66°49' E 013°56'0 0.0
2017-Dec-04 02:58N 66°49' E 013°56'0 0.0
2017-Dec-04 02:28N 66°49' E 013°56'0 0.0
2017-Dec-04 01:58N 66°49' E 013°56'0 0.0
2017-Dec-04 01:28N 66°49' E 013°56'0 0.0
2017-Dec-04 00:58N 66°49' E 013°56'0 0.0
2017-Dec-04 00:28N 66°49' E 013°56'0 0.0
2017-Dec-03 23:58N 66°49' E 013°56'0 0.0
2017-Dec-03 23:28N 66°49' E 013°56'0 0.0
2017-Dec-03 22:58N 66°49' E 013°56'0 0.0
2017-Dec-03 22:28N 66°49' E 013°56'0 0.0
2017-Dec-03 21:58N 66°49' E 013°56'0 0.0
2017-Dec-03 21:28N 66°49' E 013°56'0 0.0
2017-Dec-03 20:58N 66°49' E 013°56'0 0.0
2017-Dec-03 20:28N 66°49' E 013°56'0 0.0
2017-Dec-03 19:58N 66°49' E 013°56'0 0.0
2017-Dec-03 19:28N 66°49' E 013°56'0 0.0
2017-Dec-03 18:58N 66°49' E 013°56'0 0.0
2017-Dec-03 18:28N 66°49' E 013°56'0 0.0
2017-Dec-03 17:55N 66°49' E 013°56'0 0.0
2017-Dec-03 17:25N 66°49' E 013°56'0 0.0
2017-Dec-03 16:55N 66°49' E 013°56'0 0.0
2017-Dec-03 16:28N 66°49' E 013°56'0 0.0
2017-Dec-03 15:58N 66°49' E 013°56'0 0.0
2017-Dec-03 15:31N 66°49' E 013°56'0 0.0
2017-Dec-03 15:01N 66°49' E 013°56'0 0.0
2017-Dec-03 14:31N 66°49' E 013°56'0 0.0
2017-Dec-03 14:00N 66°49' E 013°56'0 0.0
2017-Dec-03 13:18N 66°49' E 013°56'0 0.0
2017-Dec-03 13:00N 66°49' E 013°56'0 0.0
2017-Dec-03 12:30N 66°49' E 013°56'0 0.0
2017-Dec-03 12:00N 66°49' E 013°56'0 0.0
2017-Dec-03 11:30N 66°49' E 013°56'0 0.0
2017-Dec-03 10:54N 66°49' E 013°56'0 0.0
2017-Dec-03 10:30N 66°49' E 013°56'0 0.0
2017-Dec-03 10:00N 66°49' E 013°56'0 0.0
2017-Dec-03 09:30N 66°49' E 013°56'0 0.0
2017-Dec-03 08:57N 66°49' E 013°56'0 0.0
2017-Dec-03 08:30N 66°49' E 013°56'0 0.0
2017-Dec-03 08:00N 66°49' E 013°56'0 0.0
2017-Dec-03 07:30N 66°49' E 013°56'0 0.0
2017-Dec-03 07:00N 66°49' E 013°56'0 0.0
2017-Dec-03 06:30N 66°49' E 013°56'0 0.0
2017-Dec-03 06:00N 66°49' E 013°56'0 0.0
2017-Dec-03 05:30N 66°49' E 013°56'0 0.0
2017-Dec-03 05:00N 66°49' E 013°56'0 0.0
2017-Dec-03 04:30N 66°49' E 013°56'0 0.0
2017-Dec-03 03:57N 66°49' E 013°56'0 0.0
2017-Dec-03 03:30N 66°49' E 013°56'0 0.0
2017-Dec-03 03:00N 66°49' E 013°56'0 0.0
2017-Dec-03 02:30N 66°49' E 013°56'0 0.0
2017-Dec-03 02:00N 66°49' E 013°56'0 0.0
2017-Dec-03 01:30N 66°49' E 013°56'0 0.0
2017-Dec-03 01:00N 66°49' E 013°56'0 0.0
2017-Dec-03 00:30N 66°49' E 013°56'0 0.0
2017-Dec-03 00:00N 66°49' E 013°56'0 0.0
2017-Dec-02 23:30N 66°49' E 013°56'0 0.0
2017-Dec-02 23:00N 66°49' E 013°56'0 0.0
2017-Dec-02 22:30N 66°49' E 013°56'0 0.0
2017-Dec-02 22:00N 66°49' E 013°56'0 0.0
2017-Dec-02 21:27N 66°49' E 013°56'0 0.0
2017-Dec-02 21:00N 66°49' E 013°56'0 0.0
2017-Dec-02 20:30N 66°49' E 013°56'0 0.0
2017-Dec-02 20:00N 66°49' E 013°56'0 0.0
2017-Dec-02 19:30N 66°49' E 013°56'0 0.0
2017-Dec-02 19:00N 66°49' E 013°56'0 0.0
2017-Dec-02 18:27N 66°49' E 013°56'0 0.0
2017-Dec-02 17:54N 66°49' E 013°56'0 0.0
2017-Dec-02 17:24N 66°49' E 013°56'0 0.0
2017-Dec-02 16:57N 66°49' E 013°56'0 0.0
2017-Dec-02 16:30N 66°49' E 013°56'0 0.0
2017-Dec-02 16:00N 66°49' E 013°56'0 0.0
2017-Dec-02 15:27N 66°49' E 013°56'0 0.0
2017-Dec-02 14:51N 66°49' E 013°56'0 0.0
2017-Dec-02 14:21N 66°49' E 013°56'0 0.0
2017-Dec-02 14:00N 66°49' E 013°56'0 0.0
2017-Dec-02 13:30N 66°49' E 013°56'0 0.0
2017-Dec-02 12:57N 66°49' E 013°56'0 0.0
2017-Dec-02 12:27N 66°49' E 013°56'0 0.0
2017-Dec-02 11:54N 66°49' E 013°56'0 0.0
2017-Dec-02 11:27N 66°49' E 013°56'0 0.0
2017-Dec-02 10:57N 66°49' E 013°56'0 0.0
2017-Dec-02 10:21N 66°49' E 013°56'0 0.0
2017-Dec-02 09:57N 66°49' E 013°56'0 0.0
2017-Dec-02 09:30N 66°49' E 013°56'0 0.0
2017-Dec-02 09:00N 66°49' E 013°56'0 0.0
2017-Dec-02 08:27N 66°49' E 013°56'0 0.0
2017-Dec-02 08:00N 66°49' E 013°56'0 0.0
2017-Dec-02 07:30N 66°49' E 013°56'0 0.0
2017-Dec-02 07:00N 66°49' E 013°56'0 0.0
2017-Dec-02 06:30N 66°49' E 013°56'0 0.0
2017-Dec-02 06:00N 66°49' E 013°56'0 0.0
2017-Dec-02 05:27N 66°49' E 013°56'0 0.0
2017-Dec-02 04:57N 66°49' E 013°56'0 0.0
2017-Dec-02 04:30N 66°49' E 013°56'0 0.0
2017-Dec-02 04:00N 66°49' E 013°56'0 0.0
2017-Dec-02 03:30N 66°49' E 013°56'0 0.0
2017-Dec-02 03:00N 66°49' E 013°56'0 0.0
2017-Dec-02 02:30N 66°49' E 013°56'0 0.0
2017-Dec-02 01:57N 66°49' E 013°56'0 0.0
2017-Dec-02 01:30N 66°49' E 013°56'0 0.0
2017-Dec-02 01:00N 66°49' E 013°56'0 0.0
2017-Dec-02 00:29N 66°49' E 013°56'0 0.0
2017-Dec-01 23:56N 66°49' E 013°56'0 0.0
2017-Dec-01 23:29N 66°49' E 013°56'0 0.0
2017-Dec-01 22:59N 66°49' E 013°56'0 0.0
2017-Dec-01 22:29N 66°49' E 013°56'0 0.0
2017-Dec-01 21:59N 66°49' E 013°56'0 0.0
2017-Dec-01 21:29N 66°49' E 013°56'0 0.0
2017-Dec-01 20:59N 66°49' E 013°56'0 0.0
2017-Dec-01 20:29N 66°49' E 013°56'0 0.0
2017-Dec-01 19:59N 66°49' E 013°56'0 0.0
2017-Dec-01 19:29N 66°49' E 013°56'0 0.0
2017-Dec-01 18:56N 66°49' E 013°56'0 0.0
2017-Dec-01 18:29N 66°49' E 013°56'0 0.0
2017-Dec-01 17:56N 66°49' E 013°56'0 0.0
2017-Dec-01 17:29N 66°49' E 013°56'  
Track history (hours):
 
Tides and Currents Weather Stations Pressure Air Temp Water Temp Dewpoint Dewpoint Depression Visibility Wind Speed Wind Dir Waves Ship Positions

Kristin D

Last reported at 2017-Dec-11 17:00 UTC. Time now 2017-Dec-11 23:00 UTC.
Position N 59°03' E 009°42'.

Length 90 m; draft 4.2 m.

Type: Cargo ship. MMSI: 311003700.

Date/timePositionNaut miles runAvg speedWind from/ knotsBaromVisibWave heightAir tempDewpointWater temp
2017-Dec-11 17:00N 59°03' E 009°42'5 9.9
2017-Dec-11 16:31N 58°59' E 009°47'5 9.7
2017-Dec-11 16:00N 58°54' E 009°45'510.2
2017-Dec-11 15:30N 58°50' E 009°38'5 9.4
2017-Dec-11 15:00N 58°47' E 009°33'4 8.8
2017-Dec-11 14:30N 58°44' E 009°27'4 8.7
2017-Dec-11 14:00N 58°40' E 009°21'5 9.2
2017-Dec-11 13:30N 58°37' E 009°15'5 9.2
2017-Dec-11 13:00N 58°33' E 009°09'4 9.0
2017-Dec-11 12:31N 58°30' E 009°04'5 8.8
2017-Dec-11 12:00N 58°26' E 008°59'4 8.6
2017-Dec-11 11:30N 58°23' E 008°53'4 8.9
2017-Dec-11 11:00N 58°20' E 008°47'5 9.0
2017-Dec-11 10:30N 58°17' E 008°41'5 9.1
2017-Dec-11 10:00N 58°14' E 008°34'5 9.3
2017-Dec-11 09:30N 58°11' E 008°28'5 9.5
2017-Dec-11 09:01N 58°07' E 008°22'5 9.1
2017-Dec-11 08:31N 58°04' E 008°16'4 8.9
2017-Dec-11 08:01N 58°02' E 008°09'5 9.7
2017-Dec-11 07:30N 58°00' E 008°00'5 9.9
2017-Dec-11 07:00N 57°59' E 007°51'5 9.6
2017-Dec-11 06:30N 57°57' E 007°43'5 9.3
2017-Dec-11 06:00N 57°56' E 007°34'5 9.8
2017-Dec-11 05:30N 57°56' E 007°25'5 9.9
2017-Dec-11 05:00N 57°56' E 007°16'5 9.4
2017-Dec-11 04:30N 57°56' E 007°07'5 9.5
2017-Dec-11 04:00N 57°57' E 006°58'510.1
2017-Dec-11 03:30N 57°58' E 006°49'510.2
2017-Dec-11 03:01N 57°60' E 006°40'510.0
2017-Dec-11 02:31N 58°02' E 006°31'510.8
2017-Dec-11 02:01N 58°05' E 006°24'510.5
2017-Dec-11 01:30N 58°09' E 006°17'510.4
2017-Dec-11 01:00N 58°13' E 006°10'510.2
2017-Dec-11 00:31N 58°16' E 006°03'510.6
2017-Dec-11 00:00N 58°20' E 005°55'510.4
2017-Dec-10 23:30N 58°24' E 005°49'510.8
2017-Dec-10 23:01N 58°28' E 005°42'611.4
2017-Dec-10 22:30N 58°32' E 005°34'510.6
2017-Dec-10 22:00N 58°36' E 005°29'510.5
2017-Dec-10 21:31N 58°41' E 005°23'510.6
2017-Dec-10 21:00N 58°45' E 005°18'510.8
2017-Dec-10 20:31N 58°50' E 005°12'510.5
2017-Dec-10 20:00N 58°54' E 005°07'510.3
2017-Dec-10 19:31N 58°58' E 005°01'510.3
2017-Dec-10 19:01N 59°03' E 004°56'32 9.2
2017-Dec-10 15:32N 59°34' E 004°41'0 9.0
2017-Dec-10 15:30N 59°34' E 004°41'4 8.6
2017-Dec-10 15:00N 59°39' E 004°41'4 8.4
2017-Dec-10 14:30N 59°43' E 004°39'4 8.4
2017-Dec-10 14:00N 59°47' E 004°40'4 8.6
2017-Dec-10 13:30N 59°51' E 004°40'4 8.4
2017-Dec-10 13:00N 59°55' E 004°40'4 8.2
2017-Dec-10 12:30N 59°59' E 004°39'4 8.5
2017-Dec-10 12:00N 60°04' E 004°39'4 8.1
2017-Dec-10 11:30N 60°08' E 004°38'4 8.2
2017-Dec-10 11:00N 60°12' E 004°38'4 8.5
2017-Dec-10 10:30N 60°16' E 004°37'4 8.5
2017-Dec-10 10:00N 60°20' E 004°36'4 8.3
2017-Dec-10 09:31N 60°24' E 004°35'4 7.9
2017-Dec-10 09:00N 60°28' E 004°34'4 7.6
2017-Dec-10 08:30N 60°32' E 004°33'4 7.8
2017-Dec-10 08:00N 60°36' E 004°32'4 7.9
2017-Dec-10 07:30N 60°40' E 004°30'4 8.0
2017-Dec-10 07:01N 60°44' E 004°29'4 7.6
2017-Dec-10 06:30N 60°47' E 004°27'3 7.0
2017-Dec-10 06:01N 60°51' E 004°26'4 7.2
2017-Dec-10 05:30N 60°54' E 004°25'4 7.4
2017-Dec-10 05:00N 60°58' E 004°24'4 7.9
2017-Dec-10 04:30N 61°02' E 004°24'4 7.9
2017-Dec-10 04:00N 61°06' E 004°24'4 8.3
2017-Dec-10 03:30N 61°10' E 004°24'4 8.5
2017-Dec-10 03:00N 61°14' E 004°25'4 8.8
2017-Dec-10 02:30N 61°19' E 004°25'4 8.5
2017-Dec-10 02:00N 61°23' E 004°26'4 8.5
2017-Dec-10 01:30N 61°27' E 004°26'4 8.3
2017-Dec-10 01:00N 61°32' E 004°26'4 8.2
2017-Dec-10 00:30N 61°36' E 004°27'4 8.2
2017-Dec-10 00:00N 61°40' E 004°28'4 8.2
2017-Dec-09 23:30N 61°44' E 004°29'4 8.0
2017-Dec-09 23:00N 61°48' E 004°31'4 8.2
2017-Dec-09 22:30N 61°51' E 004°34'4 8.5
2017-Dec-09 22:00N 61°56' E 004°37'4 8.5
2017-Dec-09 21:31N 61°59' E 004°40'4 8.3
2017-Dec-09 21:00N 62°03' E 004°43'4 8.0
2017-Dec-09 20:30N 62°07' E 004°46'4 8.2
2017-Dec-09 20:00N 62°11' E 004°48'4 8.6
2017-Dec-09 19:30N 62°15' E 004°50'4 7.7
2017-Dec-09 19:00N 62°19' E 004°54'3 6.1
2017-Dec-09 18:30N 62°21' E 004°59'3 5.8
2017-Dec-09 18:01N 62°22' E 005°04'3 5.9
2017-Dec-09 17:30N 62°24' E 005°09'3 6.0
2017-Dec-09 17:01N 62°26' E 005°13'3 5.3
2017-Dec-09 16:30N 62°28' E 005°18'3 5.8
2017-Dec-09 16:00N 62°29' E 005°24'3 6.0
2017-Dec-09 15:30N 62°30' E 005°30'2 4.9
2017-Dec-09 15:00N 62°30' E 005°35'3 6.1
2017-Dec-09 14:30N 62°30' E 005°42'3 4.9
2017-Dec-09 13:59N 62°29' E 005°47'2 5.1
2017-Dec-09 13:31N 62°28' E 005°51'3 5.9
2017-Dec-09 13:00N 62°27' E 005°58'4 7.7
2017-Dec-09 12:30N 62°29' E 006°05'2 4.2
2017-Dec-09 12:00N 62°29' E 006°10'0 0.0
2017-Dec-09 11:30N 62°29' E 006°10'0 0.0
2017-Dec-09 11:00N 62°29' E 006°10'0 0.0
2017-Dec-09 10:30N 62°29' E 006°10'0 0.1
2017-Dec-09 09:59N 62°29' E 006°10'0 0.0
2017-Dec-09 09:29N 62°29' E 006°10'0 0.0
2017-Dec-09 08:59N 62°29' E 006°10'0 0.0
2017-Dec-09 08:29N 62°29' E 006°10'0 0.0
2017-Dec-09 07:59N 62°29' E 006°10'0 0.1
2017-Dec-09 07:29N 62°29' E 006°10'0 0.0
2017-Dec-09 06:59N 62°29' E 006°10'0 0.1
2017-Dec-09 06:29N 62°29' E 006°10'0 0.1
2017-Dec-09 05:59N 62°29' E 006°10'0 0.0
2017-Dec-09 05:29N 62°29' E 006°10'0 0.0
2017-Dec-09 04:59N 62°29' E 006°10'0 0.1
2017-Dec-09 04:29N 62°29' E 006°10'0 0.0
2017-Dec-09 03:59N 62°29' E 006°10'0 0.0
2017-Dec-09 03:29N 62°29' E 006°10'0 0.0
2017-Dec-09 02:59N 62°29' E 006°10'0 0.0
2017-Dec-09 02:29N 62°29' E 006°10'0 0.1
2017-Dec-09 01:59N 62°29' E 006°10'0 0.1
2017-Dec-09 01:29N 62°29' E 006°10'0 0.0
2017-Dec-09 00:59N 62°29' E 006°10'0 0.0
2017-Dec-09 00:29N 62°29' E 006°10'0 0.0
2017-Dec-08 23:59N 62°29' E 006°10'0 0.0
2017-Dec-08 23:29N 62°29' E 006°10'0 0.0
2017-Dec-08 22:59N 62°29' E 006°10'0 0.1
2017-Dec-08 22:29N 62°29' E 006°10'0 0.1
2017-Dec-08 21:59N 62°29' E 006°10'0 0.1
2017-Dec-08 21:29N 62°29' E 006°10'0 0.0
2017-Dec-08 20:59N 62°29' E 006°10'0 0.0
2017-Dec-08 20:29N 62°29' E 006°10'0 0.0
2017-Dec-08 19:59N 62°29' E 006°10'0 0.1
2017-Dec-08 19:29N 62°29' E 006°10'0 0.1
2017-Dec-08 18:59N 62°29' E 006°10'0 0.0
2017-Dec-08 18:29N 62°29' E 006°10'0 0.0
2017-Dec-08 17:59N 62°29' E 006°10'0 0.0
2017-Dec-08 17:29N 62°29' E 006°10'0 0.0
2017-Dec-08 16:59N 62°29' E 006°10'0 0.0
2017-Dec-08 16:29N 62°29' E 006°10'0 0.0
2017-Dec-08 15:59N 62°29' E 006°10'0 0.1
2017-Dec-08 15:29N 62°29' E 006°10'0 0.1
2017-Dec-08 14:59N 62°29' E 006°10'0 0.0
2017-Dec-08 14:29N 62°29' E 006°10'0 0.0
2017-Dec-08 13:59N 62°29' E 006°10'0 0.1
2017-Dec-08 13:29N 62°29' E 006°10'0 0.0
2017-Dec-08 12:59N 62°29' E 006°10'0 0.1
2017-Dec-08 12:29N 62°29' E 006°10'0 0.0
2017-Dec-08 11:59N 62°29' E 006°10'0 0.0
2017-Dec-08 11:29N 62°29' E 006°10'0 0.0
2017-Dec-08 10:59N 62°29' E 006°10'0 0.1
2017-Dec-08 10:29N 62°29' E 006°10'0 0.1
2017-Dec-08 09:59N 62°29' E 006°10'0 0.0
2017-Dec-08 09:29N 62°29' E 006°10'0 0.1
2017-Dec-08 08:59N 62°29' E 006°10'0 0.1
2017-Dec-08 08:29N 62°29' E 006°10'0 0.0
2017-Dec-08 07:59N 62°29' E 006°10'0 0.0
2017-Dec-08 07:29N 62°29' E 006°10'0 0.0
2017-Dec-08 06:59N 62°29' E 006°10'0 0.0
2017-Dec-08 06:29N 62°29' E 006°10'0 0.0
2017-Dec-08 05:59N 62°29' E 006°10'0 0.0
2017-Dec-08 05:29N 62°29' E 006°10'0 0.0
2017-Dec-08 04:59N 62°29' E 006°10'0 0.1
2017-Dec-08 04:29N 62°29' E 006°10'0 0.1
2017-Dec-08 03:59N 62°29' E 006°10'0 0.1
2017-Dec-08 03:29N 62°29' E 006°10'0 0.2
2017-Dec-08 02:59N 62°29' E 006°10'0 0.0
2017-Dec-08 02:29N 62°29' E 006°10'0 0.1
2017-Dec-08 01:59N 62°29' E 006°10'0 0.0
2017-Dec-08 01:29N 62°29' E 006°10'0 0.0
2017-Dec-08 00:59N 62°29' E 006°10'0 0.0
2017-Dec-08 00:29N 62°29' E 006°10'0 0.0
2017-Dec-07 23:59N 62°29' E 006°10'0 0.0
2017-Dec-07 23:29N 62°29' E 006°10'0 0.0
2017-Dec-07 22:59N 62°29' E 006°10'0 0.0
2017-Dec-07 22:29N 62°29' E 006°10'0 0.1
2017-Dec-07 21:59N 62°29' E 006°10'0 0.0
2017-Dec-07 21:29N 62°29' E 006°10'0 0.0
2017-Dec-07 20:58N 62°29' E 006°10'0 0.2
2017-Dec-07 20:28N 62°29' E 006°09'0 0.0
2017-Dec-07 19:58N 62°29' E 006°09'0 0.0
2017-Dec-07 19:28N 62°29' E 006°09'0 0.1
2017-Dec-07 18:58N 62°29' E 006°09'0 0.9
2017-Dec-07 18:30N 62°29' E 006°09'5 9.5
2017-Dec-07 18:00N 62°27' E 005°59'1 2.0
2017-Dec-07 17:30N 62°27' E 005°57'2 3.8
2017-Dec-07 16:59N 62°28' E 005°53'3 7.0
2017-Dec-07 16:30N 62°29' E 005°46'4 9.1
2017-Dec-07 16:00N 62°30' E 005°36'3 7.0
2017-Dec-07 15:30N 62°33' E 005°39'1 2.9
2017-Dec-07 15:00N 62°34' E 005°41'3 6.6
2017-Dec-07 14:30N 62°32' E 005°35'3 6.7
2017-Dec-07 14:00N 62°35' E 005°40'4 7.5
2017-Dec-07 13:30N 62°38' E 005°46'4 7.3
2017-Dec-07 13:00N 62°40' E 005°51'4 7.6
2017-Dec-07 12:30N 62°43' E 005°57'4 7.3
2017-Dec-07 12:00N 62°46' E 006°02'4 7.9
2017-Dec-07 11:30N 62°49' E 006°08'4 8.4
2017-Dec-07 11:00N 62°52' E 006°14'5 9.2
2017-Dec-07 10:29N 62°55' E 006°21'5 9.6
2017-Dec-07 10:00N 62°59' E 006°28'5 9.7
2017-Dec-07 09:30N 63°03' E 006°34'5 9.8
2017-Dec-07 09:00N 63°07' E 006°39'5 9.5
2017-Dec-07 08:30N 63°11' E 006°45'5 9.4
2017-Dec-07 08:00N 63°16' E 006°49'  
2017-Dec-04 03:25N 66°49' E 013°56'0 0.0
2017-Dec-04 02:58N 66°49' E 013°56'0 0.0
2017-Dec-04 02:28N 66°49' E 013°56'0 0.0
2017-Dec-04 01:58N 66°49' E 013°56'0 0.0
2017-Dec-04 01:28N 66°49' E 013°56'0 0.0
2017-Dec-04 00:58N 66°49' E 013°56'0 0.0
2017-Dec-04 00:28N 66°49' E 013°56'0 0.0
2017-Dec-03 23:58N 66°49' E 013°56'0 0.0
2017-Dec-03 23:28N 66°49' E 013°56'0 0.0
2017-Dec-03 22:58N 66°49' E 013°56'0 0.0
2017-Dec-03 22:28N 66°49' E 013°56'0 0.0
2017-Dec-03 21:58N 66°49' E 013°56'0 0.0
2017-Dec-03 21:28N 66°49' E 013°56'0 0.0
2017-Dec-03 20:58N 66°49' E 013°56'0 0.0
2017-Dec-03 20:28N 66°49' E 013°56'0 0.0
2017-Dec-03 19:58N 66°49' E 013°56'0 0.0
2017-Dec-03 19:28N 66°49' E 013°56'0 0.0
2017-Dec-03 18:58N 66°49' E 013°56'0 0.0
2017-Dec-03 18:28N 66°49' E 013°56'0 0.0
2017-Dec-03 17:55N 66°49' E 013°56'0 0.0
2017-Dec-03 17:25N 66°49' E 013°56'0 0.0
2017-Dec-03 16:55N 66°49' E 013°56'0 0.0
2017-Dec-03 16:28N 66°49' E 013°56'0 0.0
2017-Dec-03 15:58N 66°49' E 013°56'0 0.0
2017-Dec-03 15:31N 66°49' E 013°56'0 0.0
2017-Dec-03 15:01N 66°49' E 013°56'0 0.0
2017-Dec-03 14:31N 66°49' E 013°56'0 0.0
2017-Dec-03 14:00N 66°49' E 013°56'0 0.0
2017-Dec-03 13:18N 66°49' E 013°56'0 0.0
2017-Dec-03 13:00N 66°49' E 013°56'0 0.0
2017-Dec-03 12:30N 66°49' E 013°56'0 0.0
2017-Dec-03 12:00N 66°49' E 013°56'0 0.0
2017-Dec-03 11:30N 66°49' E 013°56'0 0.0
2017-Dec-03 10:54N 66°49' E 013°56'0 0.0
2017-Dec-03 10:30N 66°49' E 013°56'0 0.0
2017-Dec-03 10:00N 66°49' E 013°56'0 0.0
2017-Dec-03 09:30N 66°49' E 013°56'0 0.0
2017-Dec-03 08:57N 66°49' E 013°56'0 0.0
2017-Dec-03 08:30N 66°49' E 013°56'0 0.0
2017-Dec-03 08:00N 66°49' E 013°56'0 0.0
2017-Dec-03 07:30N 66°49' E 013°56'0 0.0
2017-Dec-03 07:00N 66°49' E 013°56'0 0.0
2017-Dec-03 06:30N 66°49' E 013°56'0 0.0
2017-Dec-03 06:00N 66°49' E 013°56'0 0.0
2017-Dec-03 05:30N 66°49' E 013°56'0 0.0
2017-Dec-03 05:00N 66°49' E 013°56'0 0.0
2017-Dec-03 04:30N 66°49' E 013°56'0 0.0
2017-Dec-03 03:57N 66°49' E 013°56'0 0.0
2017-Dec-03 03:30N 66°49' E 013°56'0 0.0
2017-Dec-03 03:00N 66°49' E 013°56'0 0.0
2017-Dec-03 02:30N 66°49' E 013°56'0 0.0
2017-Dec-03 02:00N 66°49' E 013°56'0 0.0
2017-Dec-03 01:30N 66°49' E 013°56'0 0.0
2017-Dec-03 01:00N 66°49' E 013°56'0 0.0
2017-Dec-03 00:30N 66°49' E 013°56'0 0.0
2017-Dec-03 00:00N 66°49' E 013°56'0 0.0
2017-Dec-02 23:30N 66°49' E 013°56'0 0.0
2017-Dec-02 23:00N 66°49' E 013°56'0 0.0
2017-Dec-02 22:30N 66°49' E 013°56'0 0.0
2017-Dec-02 22:00N 66°49' E 013°56'0 0.0
2017-Dec-02 21:27N 66°49' E 013°56'0 0.0
2017-Dec-02 21:00N 66°49' E 013°56'0 0.0
2017-Dec-02 20:30N 66°49' E 013°56'0 0.0
2017-Dec-02 20:00N 66°49' E 013°56'0 0.0
2017-Dec-02 19:30N 66°49' E 013°56'0 0.0
2017-Dec-02 19:00N 66°49' E 013°56'0 0.0
2017-Dec-02 18:27N 66°49' E 013°56'0 0.0
2017-Dec-02 17:54N 66°49' E 013°56'0 0.0
2017-Dec-02 17:24N 66°49' E 013°56'0 0.0
2017-Dec-02 16:57N 66°49' E 013°56'0 0.0
2017-Dec-02 16:30N 66°49' E 013°56'0 0.0
2017-Dec-02 16:00N 66°49' E 013°56'0 0.0
2017-Dec-02 15:27N 66°49' E 013°56'0 0.0
2017-Dec-02 14:51N 66°49' E 013°56'0 0.0
2017-Dec-02 14:21N 66°49' E 013°56'0 0.0
2017-Dec-02 14:00N 66°49' E 013°56'0 0.0
2017-Dec-02 13:30N 66°49' E 013°56'0 0.0
2017-Dec-02 12:57N 66°49' E 013°56'0 0.0
2017-Dec-02 12:27N 66°49' E 013°56'0 0.0
2017-Dec-02 11:54N 66°49' E 013°56'0 0.0
2017-Dec-02 11:27N 66°49' E 013°56'0 0.0
2017-Dec-02 10:57N 66°49' E 013°56'0 0.0
2017-Dec-02 10:21N 66°49' E 013°56'0 0.0
2017-Dec-02 09:57N 66°49' E 013°56'0 0.0
2017-Dec-02 09:30N 66°49' E 013°56'0 0.0
2017-Dec-02 09:00N 66°49' E 013°56'0 0.0
2017-Dec-02 08:27N 66°49' E 013°56'0 0.0
2017-Dec-02 08:00N 66°49' E 013°56'0 0.0
2017-Dec-02 07:30N 66°49' E 013°56'0 0.0
2017-Dec-02 07:00N 66°49' E 013°56'0 0.0
2017-Dec-02 06:30N 66°49' E 013°56'0 0.0
2017-Dec-02 06:00N 66°49' E 013°56'0 0.0
2017-Dec-02 05:27N 66°49' E 013°56'0 0.0
2017-Dec-02 04:57N 66°49' E 013°56'0 0.0
2017-Dec-02 04:30N 66°49' E 013°56'0 0.0
2017-Dec-02 04:00N 66°49' E 013°56'0 0.0
2017-Dec-02 03:30N 66°49' E 013°56'0 0.0
2017-Dec-02 03:00N 66°49' E 013°56'0 0.0
2017-Dec-02 02:30N 66°49' E 013°56'0 0.0
2017-Dec-02 01:57N 66°49' E 013°56'0 0.0
2017-Dec-02 01:30N 66°49' E 013°56'0 0.0
2017-Dec-02 01:00N 66°49' E 013°56'0 0.0
2017-Dec-02 00:29N 66°49' E 013°56'0 0.0
2017-Dec-01 23:56N 66°49' E 013°56'0 0.0
2017-Dec-01 23:29N 66°49' E 013°56'0 0.0
2017-Dec-01 22:59N 66°49' E 013°56'0 0.0
2017-Dec-01 22:29N 66°49' E 013°56'0 0.0
2017-Dec-01 21:59N 66°49' E 013°56'0 0.0
2017-Dec-01 21:29N 66°49' E 013°56'0 0.0
2017-Dec-01 20:59N 66°49' E 013°56'0 0.0
2017-Dec-01 20:29N 66°49' E 013°56'0 0.0
2017-Dec-01 19:59N 66°49' E 013°56'0 0.0
2017-Dec-01 19:29N 66°49' E 013°56'0 0.0
2017-Dec-01 18:56N 66°49' E 013°56'0 0.0
2017-Dec-01 18:29N 66°49' E 013°56'0 0.0
2017-Dec-01 17:56N 66°49' E 013°56'0 0.0
2017-Dec-01 17:29N 66°49' E 013°56'  

Dump ship's entire track history